Hyderabad Weather



Hyderabad's Current Weather

Temprature 31.61o overcast clouds

overcast clouds

Rain: 0 %

Min Temprature31.61o
Max Temprature31.61o
Humidity66
Wind Speed10.2 m/h
Sun Rise05:59:15
Sun Set19:03:40
Current Time: 13-Aug-2020 19:33:05
Lat/Lon: 25.39, 68.37




Hyderabad's Geo Location



Hyderabad's Weather Forecast

Time Overall Temp Min Temp Max Temp Humidity Wind Speed Rain
13-Aug-2020 (Thu)
20:00:00 overcast clouds 33.080 31.610 33.080 61 10.2 m/h 0 %
23:00:00 overcast clouds 31.140 30.220 31.140 69 9.53 m/h 0 %
14-Aug-2020 (Fri)
02:00:00 overcast clouds 29.860 29.540 29.860 73 9.09 m/h 0 %
05:00:00 overcast clouds 29.210 29.170 29.210 76 8.31 m/h 0 %
08:00:00 overcast clouds 29.870 29.870 29.870 73 8.99 m/h 0 %
11:00:00 overcast clouds 33.100 33.100 33.100 60 8.14 m/h 0 %
14:00:00 overcast clouds 35.840 35.840 35.840 51 7.17 m/h 0 %
17:00:00 overcast clouds 34.980 34.980 34.980 54 7.04 m/h 0 %
20:00:00 broken clouds 32.190 32.190 32.190 63 7.17 m/h 0 %
23:00:00 scattered clouds 30.490 30.490 30.490 69 7.07 m/h 0 %
15-Aug-2020 (Sat)
02:00:00 broken clouds 29.700 29.700 29.700 73 6.21 m/h 0 %
05:00:00 broken clouds 29.500 29.500 29.500 74 5.69 m/h 0 %
08:00:00 overcast clouds 30.390 30.390 30.390 70 7.01 m/h 0 %
11:00:00 overcast clouds 33.560 33.560 33.560 58 6.88 m/h 0 %
14:00:00 overcast clouds 35.700 35.700 35.700 51 8.07 m/h 0 %
17:00:00 overcast clouds 34.830 34.830 34.830 53 8.45 m/h 0 %
20:00:00 broken clouds 31.640 31.640 31.640 64 8.91 m/h 0 %
23:00:00 scattered clouds 30.040 30.040 30.040 71 9.84 m/h 0 %
16-Aug-2020 (Sun)
02:00:00 overcast clouds 29.730 29.730 29.730 72 9.14 m/h 0 %
05:00:00 overcast clouds 29.380 29.380 29.380 73 9.29 m/h 0 %
08:00:00 overcast clouds 29.860 29.860 29.860 71 9.3 m/h 0 %
11:00:00 overcast clouds 33.270 33.270 33.270 59 9.33 m/h 0 %
14:00:00 overcast clouds 35.060 35.060 35.060 54 9.63 m/h 0 %
17:00:00 overcast clouds 33.260 33.260 33.260 59 9.54 m/h 0 %
20:00:00 overcast clouds 31.200 31.200 31.200 66 9.04 m/h 0 %
23:00:00 overcast clouds 29.870 29.870 29.870 71 9.2 m/h 0 %
17-Aug-2020 (Mon)
02:00:00 overcast clouds 29.500 29.500 29.500 72 8.93 m/h 0 %
05:00:00 overcast clouds 28.980 28.980 28.980 74 9.04 m/h 0 %
08:00:00 broken clouds 29.670 29.670 29.670 70 9.15 m/h 0 %
11:00:00 broken clouds 33.220 33.220 33.220 57 8.99 m/h 0 %
14:00:00 overcast clouds 33.250 33.250 33.250 57 8.17 m/h 0 %
17:00:00 overcast clouds 31.750 31.750 31.750 63 8.23 m/h 0 %
20:00:00 overcast clouds 30.570 30.570 30.570 67 8.4 m/h 0 %
23:00:00 overcast clouds 29.830 29.830 29.830 72 8.96 m/h 0 %
18-Aug-2020 (Tue)
02:00:00 overcast clouds 29.440 29.440 29.440 74 8.31 m/h 0 %
05:00:00 overcast clouds 28.960 28.960 28.960 75 8.25 m/h 0 %
08:00:00 overcast clouds 29.500 29.500 29.500 72 7.79 m/h 0 %
11:00:00 overcast clouds 31.170 31.170 31.170 66 8.31 m/h 0 %
14:00:00 broken clouds 33.850 33.850 33.850 58 9.85 m/h 0 %
17:00:00 broken clouds 32.260 32.260 32.260 62 9.44 m/h 0 %


Hyderabad's Tourist Spots

Museums in Hyderabad

Famous Cities (60)